Aeroporto :
LOGIN :

Iscrizione | Disclaimer

   EN    FR    IT 

 










Sommario :    VFR   VFR Marginale   IFR   IFR Intensivo   IFR Molto Intensivo
Visibilità : 
Base nubi : 
>= 8 km
>= 3000ft
5 / 8 km
1000 / 3000 ft
1500m / 5 km
500 / 1000 ft
800 / 1500m
200 / 500 ft
< 800m
< 200 ft
Simboli :   Temporali  Nebbia  Neve Forte  Precipitazioni Forti  Vento > 20 kt
SIGMETs :   Varie  Temporali  Ghiacco  Turbolenza  Onda orograficha  Ceneri Vulcaniche






- Altitudine del aeroporto : 598 ft
- Codice IATA : BQH


EGKB - Biggin Hill

ULTIMO METAR :
  • 182050Z 25014G28KT 210V270 9999 FEW040 05/02 Q1014

METARs OBSOLETI :
  • 182020Z 24012KT 210V280 9999 FEW030 05/03 Q1014
  • 181950Z 23012KT 200V260 9999 FEW040 05/03 Q1015
  • 181920Z 24016G26KT 210V280 9999 SCT014 05/04 Q1015 RESHRA
  • 181850Z 22014G25KT 6000 SHRA SCT020 07/04 Q1015
  • 181820Z 22015G25KT 200V260 9999 SCT020 07/05 Q1015
  • 181750Z 22018G29KT 9999 SCT015 07/05 Q1015

TAF TAF EGKB
Valido dal 18 a 21 ore il 18 a 23 ore UTC


181958Z 1821/1823 26015KT 9999 FEW022
PROB40
TEMPO 1821/1822 24018G32KT 4000 +SHRA BKN010CB



MetMap, La meteo Aeronautica in un colpo d'occhio ! - Copyright ORBIFLY Dicembre 2007 - Disclaimer

ORBIFLY MET'MAP TEAM :

Programmazione e sviluppo : Alexandra Zaïnal
Concezione : Baudouin d'Aumeries
Aiuto per la programmazione : Marc-Olivier Méhu
Supporto tecnico e logistico : Manuel Goepfert
Aiuto per la traduzione : Arnaldo La Scala

Contatto : metmap@orbifly.com




FONTI E CREDITI :

   NOAA